createdAt,value
2019-05-20T00:02:32.842Z,33.42
2019-05-20T00:05:07.902Z,33.35
2019-05-20T00:07:42.668Z,33.20
2019-05-20T00:10:17.559Z,33.57
2019-05-20T00:12:52.318Z,33.60
2019-05-20T00:15:27.130Z,34.13
2019-05-20T00:18:01.883Z,33.15
2019-05-20T00:20:36.815Z,33.73
2019-05-20T00:23:11.714Z,33.70
2019-05-20T00:25:46.465Z,33.60
2019-05-20T00:28:21.223Z,33.78
2019-05-20T00:30:55.986Z,33.80
2019-05-20T00:33:30.783Z,34.50
2019-05-20T00:36:05.599Z,34.13
2019-05-20T00:38:40.434Z,33.63
2019-05-20T00:41:15.235Z,33.67
2019-05-20T00:43:49.980Z,34.35
2019-05-20T00:46:24.782Z,33.88
2019-05-20T00:48:59.605Z,33.73
2019-05-20T00:51:34.488Z,33.80
2019-05-20T00:54:09.683Z,33.02
2019-05-20T00:56:44.580Z,33.50
2019-05-20T00:59:19.333Z,33.33
2019-05-20T01:01:54.105Z,32.93
2019-05-20T01:04:28.855Z,33.67
2019-05-20T01:07:03.590Z,33.80
2019-05-20T01:09:38.423Z,34.03
2019-05-20T01:12:13.243Z,34.10
2019-05-20T01:14:48.903Z,34.18
2019-05-20T01:17:23.722Z,33.65
2019-05-20T01:19:58.643Z,33.92
2019-05-20T01:22:33.372Z,33.90
2019-05-20T01:25:08.375Z,33.90
2019-05-20T01:27:43.442Z,33.95
2019-05-20T01:30:19.166Z,34.08
2019-05-20T01:32:53.970Z,33.90
2019-05-20T01:35:28.724Z,33.20
2019-05-20T01:38:03.455Z,33.75
2019-05-20T01:40:38.298Z,33.38
2019-05-20T01:43:32.291Z,34.10
2019-05-20T01:46:07.348Z,33.55
2019-05-20T01:48:42.243Z,33.67
2019-05-20T01:51:17.059Z,33.65
2019-05-20T01:53:52.862Z,34.05
2019-05-20T01:56:27.684Z,33.78
2019-05-20T01:59:02.613Z,33.53
2019-05-20T02:01:37.426Z,33.90
2019-05-20T02:04:12.180Z,33.90
2019-05-20T02:06:46.930Z,33.53
2019-05-20T02:09:21.671Z,33.50
2019-05-20T02:11:56.564Z,33.70
2019-05-20T02:14:34.931Z,33.48
2019-05-20T02:17:09.818Z,33.55
2019-05-20T02:19:44.562Z,33.78
2019-05-20T02:22:25.605Z,33.13
2019-05-20T02:25:00.430Z,33.28
2019-05-20T02:27:35.344Z,33.83
2019-05-20T02:30:11.268Z,33.08
2019-05-20T02:32:46.158Z,33.23
2019-05-20T02:35:20.996Z,33.47
2019-05-20T02:37:55.977Z,33.90
2019-05-20T02:40:30.908Z,34.03
2019-05-20T02:43:05.852Z,33.75
2019-05-20T02:45:40.687Z,33.65
2019-05-20T02:48:15.636Z,33.93
2019-05-20T02:50:50.502Z,33.58
2019-05-20T02:53:25.243Z,34.08
2019-05-20T02:56:00.087Z,33.78
2019-05-20T02:58:34.975Z,33.83
2019-05-20T03:01:09.823Z,33.67
2019-05-20T03:03:44.704Z,33.18
2019-05-20T03:06:19.613Z,33.42
2019-05-20T03:08:54.388Z,33.92
2019-05-20T03:11:29.160Z,33.50
2019-05-20T03:14:04.257Z,33.78
2019-05-20T03:16:39.032Z,34.27
2019-05-20T03:19:14.888Z,34.13
2019-05-20T03:21:49.795Z,33.88
2019-05-20T03:24:24.701Z,33.92
2019-05-20T03:26:59.627Z,34.92
2019-05-20T03:29:34.364Z,34.35
2019-05-20T03:32:09.474Z,33.55
2019-05-20T03:34:53.629Z,33.92
2019-05-20T03:37:20.833Z,34.67
2019-05-20T03:39:55.721Z,34.00
2019-05-20T03:42:30.555Z,33.75
2019-05-20T03:45:06.392Z,33.56
2019-05-20T03:47:41.173Z,34.20
2019-05-20T03:50:16.135Z,33.98
2019-05-20T03:52:50.984Z,34.50
2019-05-20T03:55:25.804Z,34.27
2019-05-20T03:58:00.921Z,34.45
2019-05-20T04:00:46.174Z,34.48
2019-05-20T04:03:21.006Z,34.03
2019-05-20T04:05:55.768Z,34.43
2019-05-20T04:08:30.595Z,34.08
2019-05-20T04:11:05.520Z,34.40
2019-05-20T04:13:40.405Z,34.20
2019-05-20T04:16:15.226Z,34.63
2019-05-20T04:18:53.787Z,33.85
2019-05-20T04:21:26.499Z,34.55
2019-05-20T04:24:02.135Z,34.75
2019-05-20T04:26:37.287Z,34.43
2019-05-20T04:29:12.118Z,34.75
2019-05-20T04:31:46.958Z,34.87
2019-05-20T04:34:21.792Z,34.13
2019-05-20T04:36:56.562Z,34.80
2019-05-20T04:39:31.372Z,34.88
2019-05-20T04:42:07.016Z,35.15
2019-05-20T04:44:42.278Z,35.40
2019-05-20T04:47:18.007Z,35.40
2019-05-20T04:49:52.767Z,34.95
2019-05-20T04:52:27.608Z,35.58
2019-05-20T04:55:02.575Z,35.83
2019-05-20T04:57:45.722Z,35.15
2019-05-20T05:00:53.367Z,36.33
2019-05-20T05:03:28.125Z,35.15
2019-05-20T05:06:03.017Z,35.50
2019-05-20T05:08:37.944Z,35.35
2019-05-20T05:11:12.856Z,35.95
2019-05-20T05:13:47.788Z,34.80
2019-05-20T05:16:22.673Z,35.20
2019-05-20T05:18:57.650Z,35.35
2019-05-20T05:21:32.544Z,35.63
2019-05-20T05:24:07.512Z,35.83
2019-05-20T05:26:42.547Z,35.28
2019-05-20T05:29:17.451Z,35.90
2019-05-20T05:31:52.288Z,36.03
2019-05-20T05:34:27.198Z,36.63
2019-05-20T05:37:02.221Z,36.85
2019-05-20T05:39:37.131Z,35.60
2019-05-20T05:42:12.041Z,36.35
2019-05-20T05:44:46.861Z,36.17
2019-05-20T05:47:21.615Z,35.73
2019-05-20T05:49:56.503Z,36.15
2019-05-20T05:52:31.432Z,36.30
2019-05-20T05:55:06.551Z,35.98
2019-05-20T05:57:41.467Z,35.92
2019-05-20T06:00:16.574Z,36.40
2019-05-20T06:02:51.479Z,36.38
2019-05-20T06:05:26.385Z,37.85
2019-05-20T06:08:01.289Z,37.28
2019-05-20T06:10:36.198Z,37.78
2019-05-20T06:13:11.231Z,39.35
2019-05-20T06:15:46.135Z,39.85
2019-05-20T06:18:21.923Z,39.48
2019-05-20T06:20:56.827Z,39.78
2019-05-20T06:23:31.674Z,39.08
2019-05-20T06:26:06.487Z,40.83
2019-05-20T06:28:41.318Z,42.05
2019-05-20T06:31:16.227Z,43.42
2019-05-20T06:33:51.139Z,42.70
2019-05-20T06:36:27.321Z,42.23
2019-05-20T06:39:11.916Z,41.98
2019-05-20T06:41:46.741Z,43.40
2019-05-20T06:44:21.507Z,43.20
2019-05-20T06:46:56.336Z,45.33
2019-05-20T06:49:31.168Z,43.70
2019-05-20T06:52:06.000Z,43.60
2019-05-20T06:54:40.855Z,44.77
2019-05-20T06:57:15.818Z,45.52
2019-05-20T06:59:50.648Z,44.88
2019-05-20T07:02:25.505Z,45.40
2019-05-20T07:05:00.484Z,46.20
2019-05-20T07:07:35.392Z,43.30
2019-05-20T07:10:10.299Z,46.42
2019-05-20T07:12:45.127Z,46.42
2019-05-20T07:15:20.127Z,44.55
2019-05-20T07:17:54.943Z,46.15
2019-05-20T07:20:29.779Z,45.83
2019-05-20T07:23:04.677Z,45.33
2019-05-20T07:25:39.514Z,46.35
2019-05-20T07:28:14.341Z,48.25
2019-05-20T07:30:49.183Z,46.92
2019-05-20T07:33:24.015Z,47.55
2019-05-20T07:35:58.943Z,48.20
2019-05-20T07:38:33.775Z,48.23
2019-05-20T07:41:08.694Z,48.80
2019-05-20T07:43:43.552Z,48.52
2019-05-20T07:46:18.965Z,49.25
2019-05-20T07:48:53.976Z,48.83
2019-05-20T07:51:29.472Z,48.35
2019-05-20T07:54:04.667Z,49.08
2019-05-20T07:56:43.228Z,49.00
2019-05-20T07:59:21.096Z,49.83
2019-05-20T08:01:55.990Z,50.48
2019-05-20T08:04:30.922Z,50.45
2019-05-20T08:07:26.253Z,50.78
2019-05-20T08:09:45.987Z,48.65
2019-05-20T08:12:19.153Z,49.23
2019-05-20T08:14:54.148Z,51.77
2019-05-20T08:17:29.957Z,51.83
2019-05-20T08:20:05.193Z,51.37
2019-05-20T08:22:40.114Z,51.03
2019-05-20T08:25:15.025Z,49.97
2019-05-20T08:27:49.859Z,52.15
2019-05-20T08:30:33.648Z,51.67
2019-05-20T08:33:08.519Z,51.28
2019-05-20T08:35:43.288Z,52.85
2019-05-20T08:38:18.187Z,53.52
2019-05-20T08:40:52.959Z,52.93
2019-05-20T08:43:28.032Z,54.83
2019-05-20T08:46:02.961Z,53.00
2019-05-20T08:48:37.875Z,53.45
2019-05-20T08:51:12.705Z,53.98
2019-05-20T08:53:47.521Z,54.38
2019-05-20T08:56:22.485Z,55.17
2019-05-20T08:58:57.375Z,53.63
2019-05-20T09:01:32.208Z,53.20
2019-05-20T09:04:07.112Z,53.85
2019-05-20T09:06:41.958Z,54.42
2019-05-20T09:09:18.391Z,54.23
2019-05-20T09:11:54.292Z,52.93
2019-05-20T09:14:30.034Z,53.83
2019-05-20T09:17:04.995Z,53.10
2019-05-20T09:19:39.963Z,54.05
2019-05-20T09:22:14.887Z,53.98
2019-05-20T09:24:50.321Z,53.65
2019-05-20T09:27:25.223Z,53.42
2019-05-20T09:30:00.080Z,53.95
2019-05-20T09:32:35.565Z,53.50
2019-05-20T09:35:10.750Z,52.70
2019-05-20T09:37:45.779Z,52.65
2019-05-20T09:40:42.168Z,51.43
2019-05-20T09:43:17.130Z,51.85
2019-05-20T09:46:05.505Z,51.98
2019-05-20T09:48:28.578Z,51.42
2019-05-20T09:51:03.495Z,52.58
2019-05-20T09:53:38.326Z,52.13
2019-05-20T09:56:13.326Z,51.63
2019-05-20T09:58:48.216Z,52.67
2019-05-20T10:01:23.193Z,53.23
2019-05-20T10:03:57.919Z,54.20
2019-05-20T10:06:32.685Z,52.38
2019-05-20T10:09:07.572Z,50.83
2019-05-20T10:11:42.419Z,50.40
2019-05-20T10:14:17.296Z,51.20
2019-05-20T10:16:53.170Z,52.40
2019-05-20T10:19:28.163Z,50.83
2019-05-20T10:22:03.083Z,52.00
2019-05-20T10:24:38.015Z,53.48
2019-05-20T10:27:12.975Z,52.83
2019-05-20T10:29:47.795Z,52.15
2019-05-20T10:32:22.728Z,52.62
2019-05-20T10:34:57.560Z,51.10
2019-05-20T10:37:32.392Z,52.13
2019-05-20T10:40:07.669Z,52.58
2019-05-20T10:42:42.585Z,51.98
2019-05-20T10:45:17.484Z,53.63
2019-05-20T10:47:52.422Z,51.88
2019-05-20T10:50:27.178Z,51.88
2019-05-20T10:53:02.112Z,51.90
2019-05-20T10:55:36.919Z,51.65
2019-05-20T10:58:11.683Z,51.13
2019-05-20T11:01:01.631Z,50.98
2019-05-20T11:03:23.240Z,52.20
2019-05-20T11:05:58.148Z,52.93
2019-05-20T11:08:32.991Z,51.42
2019-05-20T11:11:07.892Z,51.20
2019-05-20T11:13:42.923Z,52.23
2019-05-20T11:16:17.838Z,51.68
2019-05-20T11:18:52.592Z,52.27
2019-05-20T11:21:27.336Z,51.68
2019-05-20T11:24:02.113Z,53.00
2019-05-20T11:26:36.919Z,52.30
2019-05-20T11:29:11.854Z,53.55
2019-05-20T11:31:47.631Z,53.45
2019-05-20T11:34:22.497Z,52.70
2019-05-20T11:36:57.335Z,50.38
2019-05-20T11:39:34.122Z,53.68
2019-05-20T11:42:08.973Z,52.78
2019-05-20T11:44:43.805Z,53.63
2019-05-20T11:47:18.636Z,53.20
2019-05-20T11:49:53.626Z,53.83
2019-05-20T11:52:28.647Z,52.93
2019-05-20T11:55:03.683Z,53.28
2019-05-20T11:57:38.675Z,52.60
2019-05-20T12:00:14.239Z,53.80
2019-05-20T12:02:49.202Z,53.13
2019-05-20T12:05:25.112Z,53.78
2019-05-20T12:08:00.065Z,53.92
2019-05-20T12:10:35.031Z,54.80
2019-05-20T12:13:16.019Z,53.68
2019-05-20T12:15:50.862Z,54.42
2019-05-20T12:18:25.727Z,53.38
2019-05-20T12:21:00.485Z,52.78
2019-05-20T12:23:35.307Z,53.83
2019-05-20T12:26:10.375Z,53.65
2019-05-20T12:28:45.248Z,53.25
2019-05-20T12:31:20.091Z,53.63
2019-05-20T12:33:54.855Z,53.40
2019-05-20T12:36:29.672Z,54.23
2019-05-20T12:39:05.723Z,56.70
2019-05-20T12:41:40.748Z,54.55
2019-05-20T12:44:15.662Z,52.93
2019-05-20T12:46:50.558Z,54.93
2019-05-20T12:49:25.402Z,56.00
2019-05-20T12:52:00.246Z,54.60
2019-05-20T12:54:35.084Z,54.42
2019-05-20T12:57:10.031Z,56.23
2019-05-20T12:59:44.863Z,56.42
2019-05-20T13:02:19.875Z,57.00
2019-05-20T13:04:54.704Z,56.08
2019-05-20T13:07:29.634Z,56.35
2019-05-20T13:10:05.563Z,57.05
2019-05-20T13:12:40.625Z,59.18
2019-05-20T13:15:16.030Z,57.27
2019-05-20T13:17:50.860Z,55.80
2019-05-20T13:20:25.783Z,56.10
2019-05-20T13:23:00.913Z,54.18
2019-05-20T13:25:36.119Z,55.78
2019-05-20T13:28:11.026Z,55.98
2019-05-20T13:30:47.068Z,53.87
2019-05-20T13:33:22.967Z,52.45
2019-05-20T13:35:58.023Z,54.10
2019-05-20T13:38:32.939Z,54.13
2019-05-20T13:41:07.786Z,54.03
2019-05-20T13:43:42.694Z,54.27
2019-05-20T13:46:17.708Z,54.93
2019-05-20T13:48:52.450Z,53.95
2019-05-20T13:51:27.425Z,51.85
2019-05-20T13:54:02.331Z,50.95
2019-05-20T13:56:38.272Z,50.78
2019-05-20T13:59:13.086Z,50.85
2019-05-20T14:01:47.851Z,52.43
2019-05-20T14:04:22.804Z,51.92
2019-05-20T14:06:57.665Z,51.48
2019-05-20T14:09:32.587Z,51.00
2019-05-20T14:12:07.492Z,53.02
2019-05-20T14:14:42.405Z,51.90
2019-05-20T14:17:17.258Z,51.90
2019-05-20T14:19:52.272Z,94.80
2019-05-20T14:22:27.104Z,59.70
2019-05-20T14:25:01.933Z,52.65
2019-05-20T14:27:37.239Z,66.77
2019-05-20T14:30:12.496Z,63.40
2019-05-20T14:32:47.618Z,53.87
2019-05-20T14:35:22.514Z,45.47
2019-05-20T14:37:57.691Z,48.28
2019-05-20T14:40:32.537Z,47.23
2019-05-20T14:43:07.279Z,45.73
2019-05-20T14:45:42.194Z,46.63
2019-05-20T14:48:19.420Z,46.60
2019-05-20T14:50:54.403Z,42.78
2019-05-20T14:53:29.591Z,41.10
2019-05-20T14:56:04.578Z,40.40
2019-05-20T14:58:39.415Z,41.10
2019-05-20T15:01:14.580Z,40.10
2019-05-20T15:03:49.331Z,38.67
2019-05-20T15:06:24.258Z,38.00
2019-05-20T15:08:59.118Z,37.25
2019-05-20T15:11:38.122Z,38.60
2019-05-20T15:14:10.515Z,38.00
2019-05-20T15:16:45.351Z,38.20
2019-05-20T15:19:21.327Z,39.55
2019-05-20T15:21:58.156Z,38.17
2019-05-20T15:24:32.891Z,39.40
2019-05-20T15:27:13.000Z,39.50
2019-05-20T15:29:48.465Z,39.15
2019-05-20T15:32:23.388Z,38.55
2019-05-20T15:34:58.269Z,38.80
2019-05-20T15:37:33.119Z,38.10
2019-05-20T15:40:23.054Z,38.48
2019-05-20T15:42:55.514Z,38.60
2019-05-20T15:45:31.316Z,38.55
2019-05-20T15:48:06.183Z,38.55
2019-05-20T15:50:41.064Z,40.03
2019-05-20T15:53:15.964Z,40.58
2019-05-20T15:55:50.835Z,42.58
2019-05-20T15:58:30.427Z,41.77
2019-05-20T16:01:05.270Z,41.42
2019-05-20T16:03:40.099Z,40.90
2019-05-20T16:06:15.914Z,41.33
2019-05-20T16:08:50.831Z,41.30
2019-05-20T16:11:26.714Z,43.17
2019-05-20T16:14:03.181Z,43.70
2019-05-20T16:16:38.394Z,44.35
2019-05-20T16:19:13.324Z,47.23
2019-05-20T16:21:48.240Z,49.05
2019-05-20T16:24:23.136Z,46.00
2019-05-20T16:26:58.821Z,44.18
2019-05-20T16:29:33.816Z,43.75
2019-05-20T16:32:09.414Z,44.20
2019-05-20T16:34:44.354Z,43.58
2019-05-20T16:37:23.750Z,44.20
2019-05-20T16:39:58.997Z,43.48
2019-05-20T16:42:34.023Z,42.35
2019-05-20T16:45:11.871Z,41.77
2019-05-20T16:47:46.031Z,42.38
2019-05-20T16:50:21.052Z,43.07
2019-05-20T16:52:56.133Z,42.25
2019-05-20T16:55:31.073Z,42.62
2019-05-20T16:58:06.019Z,41.85
2019-05-20T17:00:41.110Z,44.42
2019-05-20T17:03:16.035Z,43.35
2019-05-20T17:05:56.036Z,43.30
2019-05-20T17:08:37.068Z,40.90
2019-05-20T17:11:13.495Z,43.05
2019-05-20T17:13:48.412Z,41.23
2019-05-20T17:16:23.410Z,42.83
2019-05-20T17:18:58.173Z,48.98
2019-05-20T17:21:32.943Z,44.40
2019-05-20T17:24:07.861Z,45.23
2019-05-20T17:26:42.700Z,41.00
2019-05-20T17:29:18.627Z,40.63
2019-05-20T17:31:53.587Z,40.80
2019-05-20T17:34:28.373Z,40.05
2019-05-20T17:37:03.288Z,39.03
2019-05-20T17:39:38.218Z,40.83
2019-05-20T17:42:19.932Z,39.38
2019-05-20T17:44:54.814Z,39.45
2019-05-20T17:47:29.663Z,39.25
2019-05-20T17:50:04.980Z,37.55
2019-05-20T17:52:39.890Z,38.28
2019-05-20T17:55:15.246Z,37.17
2019-05-20T17:57:50.063Z,37.20
2019-05-20T18:00:25.241Z,36.13
2019-05-20T18:03:00.114Z,35.35
2019-05-20T18:05:34.947Z,35.38
2019-05-20T18:08:09.836Z,34.67
2019-05-20T18:10:49.638Z,34.40
2019-05-20T18:13:25.106Z,35.30
2019-05-20T18:15:59.892Z,34.27
2019-05-20T18:18:34.653Z,34.10
2019-05-20T18:21:18.399Z,34.95
2019-05-20T18:23:55.401Z,35.00
2019-05-20T18:26:37.973Z,35.60
2019-05-20T18:29:13.340Z,35.10
2019-05-20T18:31:48.317Z,35.90
2019-05-20T18:34:23.386Z,36.53
2019-05-20T18:36:58.496Z,36.35
2019-05-20T18:39:33.369Z,36.73
2019-05-20T18:42:08.397Z,37.20
2019-05-20T18:44:43.216Z,36.15
2019-05-20T18:47:18.032Z,36.42
2019-05-20T18:50:12.091Z,38.85
2019-05-20T18:52:48.031Z,38.70
2019-05-20T18:55:22.968Z,37.97
2019-05-20T18:57:57.711Z,39.08
2019-05-20T19:00:32.626Z,38.08
2019-05-20T19:03:07.530Z,37.70
2019-05-20T19:05:42.535Z,38.73
2019-05-20T19:08:17.487Z,39.18
2019-05-20T19:10:52.445Z,39.35
2019-05-20T19:13:27.424Z,39.25
2019-05-20T19:16:02.355Z,39.30
2019-05-20T19:18:37.575Z,39.80
2019-05-20T19:21:12.814Z,41.08
2019-05-20T19:24:06.711Z,40.65
2019-05-20T19:26:41.562Z,42.20
2019-05-20T19:29:16.455Z,41.18
2019-05-20T19:32:01.362Z,42.15
2019-05-20T19:34:28.019Z,42.55
2019-05-20T19:37:02.948Z,43.92
2019-05-20T19:39:37.911Z,43.35
2019-05-20T19:42:12.745Z,42.55
2019-05-20T19:44:47.514Z,44.23
2019-05-20T19:47:23.315Z,43.45
2019-05-20T19:49:58.160Z,42.93
2019-05-20T19:52:33.029Z,43.30
2019-05-20T19:55:08.894Z,43.78
2019-05-20T19:57:43.703Z,42.25
2019-05-20T20:00:18.621Z,44.93
2019-05-20T20:02:53.395Z,43.78
2019-05-20T20:05:28.231Z,45.17
2019-05-20T20:08:03.130Z,44.77
2019-05-20T20:10:38.050Z,43.98
2019-05-20T20:13:12.967Z,45.08
2019-05-20T20:15:47.823Z,45.45
2019-05-20T20:18:22.647Z,45.55
2019-05-20T20:20:57.480Z,45.43
2019-05-20T20:23:33.205Z,44.90
2019-05-20T20:26:08.097Z,45.92
2019-05-20T20:28:42.847Z,45.33
2019-05-20T20:31:17.681Z,44.77
2019-05-20T20:33:52.534Z,45.05
2019-05-20T20:36:27.292Z,44.83
2019-05-20T20:39:02.056Z,43.98
2019-05-20T20:41:38.564Z,44.93
2019-05-20T20:44:13.411Z,45.05
2019-05-20T20:46:48.171Z,46.00
2019-05-20T20:49:23.004Z,45.20
2019-05-20T20:51:57.766Z,46.30
2019-05-20T20:54:32.587Z,45.50
2019-05-20T20:57:07.550Z,46.40
2019-05-20T20:59:42.360Z,44.33
2019-05-20T21:02:17.135Z,44.85
2019-05-20T21:04:52.027Z,45.67
2019-05-20T21:07:26.779Z,45.05
2019-05-20T21:10:01.634Z,46.28
2019-05-20T21:12:36.535Z,44.73
2019-05-20T21:15:11.618Z,44.57
2019-05-20T21:17:46.524Z,44.93
2019-05-20T21:20:21.434Z,45.15
2019-05-20T21:22:56.244Z,46.33
2019-05-20T21:25:30.983Z,46.13
2019-05-20T21:28:06.060Z,46.13
2019-05-20T21:30:40.907Z,45.90
2019-05-20T21:33:15.820Z,45.08
2019-05-20T21:35:50.952Z,45.67
2019-05-20T21:38:25.865Z,46.77
2019-05-20T21:41:00.619Z,46.23
2019-05-20T21:43:36.434Z,46.35
2019-05-20T21:46:11.425Z,46.80
2019-05-20T21:48:46.515Z,46.88
2019-05-20T21:51:21.291Z,47.88
2019-05-20T21:53:56.162Z,46.25
2019-05-20T21:56:31.023Z,46.85
2019-05-20T21:59:05.855Z,47.55
2019-05-20T22:01:40.783Z,47.45
2019-05-20T22:04:15.591Z,47.50
2019-05-20T22:06:50.515Z,48.15
2019-05-20T22:09:25.261Z,46.53
2019-05-20T22:12:00.019Z,47.17
2019-05-20T22:14:34.842Z,46.95
2019-05-20T22:17:09.848Z,46.50
2019-05-20T22:19:44.679Z,47.53
2019-05-20T22:22:29.239Z,46.75
2019-05-20T22:25:04.146Z,47.53
2019-05-20T22:27:38.987Z,47.20
2019-05-20T22:30:14.188Z,46.90
2019-05-20T22:32:49.092Z,46.10
2019-05-20T22:35:23.924Z,47.77
2019-05-20T22:37:58.771Z,47.33
2019-05-20T22:40:33.515Z,47.10
2019-05-20T22:43:08.334Z,45.92
2019-05-20T22:45:43.227Z,46.65
2019-05-20T22:48:19.531Z,46.92
2019-05-20T22:50:54.362Z,48.65
2019-05-20T22:53:29.200Z,46.58
2019-05-20T22:56:04.020Z,48.65
2019-05-20T22:58:39.928Z,47.70
2019-05-20T23:01:14.747Z,47.93
2019-05-20T23:03:56.434Z,47.95
2019-05-20T23:06:26.129Z,48.02
2019-05-20T23:09:01.010Z,47.85
2019-05-20T23:11:36.498Z,47.88
2019-05-20T23:14:12.393Z,48.17
2019-05-20T23:16:47.214Z,46.77
2019-05-20T23:19:24.515Z,48.10
2019-05-20T23:21:59.239Z,48.95
2019-05-20T23:24:34.127Z,47.73
2019-05-20T23:27:08.963Z,48.40
2019-05-20T23:29:43.743Z,48.08
2019-05-20T23:32:18.501Z,48.70
2019-05-20T23:34:53.323Z,47.88
2019-05-20T23:37:28.157Z,47.85
2019-05-20T23:40:03.089Z,49.18
2019-05-20T23:42:38.007Z,46.80
2019-05-20T23:45:13.395Z,48.20
2019-05-20T23:47:48.234Z,48.23
2019-05-20T23:50:23.070Z,48.70
2019-05-20T23:52:57.843Z,47.58
2019-05-20T23:55:32.595Z,49.23
2019-05-20T23:58:07.459Z,50.40
